Aviation Digital Data Service (ADDS)

Output produced by METARs form (1646 UTC 20 January 2019)
found at http://www.aviationweather.gov/metar/data/
 
FYWE 201600Z 00000KT CAVOK 35/M04 Q1021
TAF FYWE 201400Z 2015/2100 31004KT CAVOK 
     BECMG 2019/2021 19006KT
       
FYGF 201100Z 18004KT 9999 SCT040 32/22 Q1022
TAF FYGF 201400Z 2015/2100 12004KT 9999 FEW035CB SCT040TCU 
     PROB30 
     TEMPO 2015/2018 -TSRA FEW030CB 
       
FYWH 201600Z 09004KT CAVOK 32/M02 Q1021 NOSIG
TAF FYWH 201600Z 2018/2118 13005KT 9999 FEW050 
     BECMG 2019/2021 NSC 
     BECMG 2104/2106 05014KT CAVOK
       
FYKT 201600Z AUTO 16003KT //// // ////// 37/M14 Q1016
TAF FYKT 201600Z 2018/2118 14004KT CAVOK 
     BECMG 2019/2021 21005KT 
     BECMG 2107/2109 35005KT
       
FYOA 201600Z 00000KT CAVOK 35/14 Q1012
TAF FYOA 201400Z 2015/2100 14004KT CAVOK 
     BECMG 2015/2017 24009KT FEW050TCU
       
TAF FYRU 201400Z 2015/2100 00000KT 9999 NSC 
     BECMG 2019/2021 05003KT FEW035CB
       
FYWB 201600Z AUTO 31009KT //// // ////// 22/14 Q1013
TAF FYWB 201600Z 2018/2118 29009KT CAVOK 
     BECMG 2019/2021 9999 BKN015 
     TEMPO 2022/2104 04004KT OVC009 
     BECMG 2105/2107 BKN015 
     BECMG 2107/2109 31007KT CAVOK